Itanhaem, Brazil
Current Conditions -  °F | °C
As of 7:00 PM on Sunday 19 Oct 2014 (Local Time) from SBST Reporting Station
Haze Haze  
Wind Chill: 75°   Ceiling: 900
Heat Index: 75°   Visibility: 1.8mi
Dew Point: 70°   Wind: 7mph
Humidity: 83%   Direction: 230°SW
Pressure: 29.97"   Gusts: NA
Location:  24.18°S, 46.8°W
Report Text: SBST 192200Z 23006KT 3000 BR BKN009 BKN025 24/21 Q1015
Loading
Personal Weather Stations






























Interactive Weather Map
Tropical Storm Tracking
New forecast layout! Learn more

10-Day Weather Forecast

Advertisements
Track Severe Weather on mobile